Time;durP1;ratioP1;P1;durP2;ratioP2;P2;SDS_P1;SDS_P2;PMS_P1;PMS_P2;Temp;Humidity;BMP_temperature;BMP_pressure;BME280_temperature;BME280_humidity;BME280_pressure;Samples;Min_cycle;Max_cycle;Signal;HPM_P1;HPM_P2
2021/07/29 00:02:27;;;;;;;4.68;2.50;;;;;;;15.59;72.03;100841.13;10458786;28;20048;-62
2021/07/29 00:07:29;;;;;;;3.63;2.53;;;;;;;15.59;74.87;100846.41;10457859;28;20051;-63
2021/07/29 00:12:32;;;;;;;4.75;2.22;;;;;;;15.50;74.53;100840.03;10457951;28;20103;-62
2021/07/29 00:22:53;;;;;;;8.15;2.50;;;;;;;15.56;74.57;100822.88;10457408;28;20481;-61
2021/07/29 00:27:56;;;;;;;3.95;2.17;;;;;;;15.63;75.47;100816.16;10456081;28;20060;-62
2021/07/29 00:32:58;;;;;;;3.70;1.77;;;;;;;15.53;71.99;100818.69;10457360;28;20045;-62
2021/07/29 00:38:02;;;;;;;4.43;1.98;;;;;;;15.59;74.29;100817.38;10455616;28;20053;-61
2021/07/29 00:43:04;;;;;;;3.20;2.28;;;;;;;15.47;72.79;100816.53;10456636;28;20485;-62
2021/07/29 00:48:06;;;;;;;3.92;2.00;;;;;;;15.54;72.78;100811.59;10455474;28;20045;-62
2021/07/29 00:53:11;;;;;;;2.88;1.77;;;;;;;15.52;73.48;100813.53;10457225;28;20124;-62
2021/07/29 00:58:13;;;;;;;4.03;2.33;;;;;;;15.35;72.76;100818.31;10456262;28;20049;-62
2021/07/29 01:03:16;;;;;;;7.03;2.33;;;;;;;15.29;74.26;100802.94;10455528;28;20041;-61
2021/07/29 01:08:18;;;;;;;4.63;2.28;;;;;;;15.17;75.42;100809.19;10456111;28;20051;-62
2021/07/29 01:13:21;;;;;;;3.75;2.00;;;;;;;15.50;72.49;100802.22;10455100;28;20044;-61
2021/07/29 01:18:23;;;;;;;6.13;1.98;;;;;;;15.28;74.19;100792.50;10454948;28;20045;-62
2021/07/29 01:23:25;;;;;;;8.30;2.00;;;;;;;15.45;74.32;100780.66;10455934;28;20060;-61
2021/07/29 01:28:28;;;;;;;4.18;1.98;;;;;;;15.33;74.09;100790.34;10455893;28;20045;-63
2021/07/29 01:33:31;;;;;;;5.85;2.90;;;;;;;15.37;73.34;100800.56;10455839;28;20045;-62
2021/07/29 01:38:33;;;;;;;4.93;2.40;;;;;;;15.44;74.14;100786.91;10455443;28;20053;-63
2021/07/29 01:43:36;;;;;;;7.82;1.98;;;;;;;15.53;73.37;100784.38;10454461;28;20041;-62
2021/07/29 01:48:39;;;;;;;8.95;2.92;;;;;;;15.50;72.88;100786.41;10455869;28;20052;-62
2021/07/29 01:53:41;;;;;;;7.97;2.10;;;;;;;15.52;72.88;100787.97;10455181;28;20052;-61
2021/07/29 01:58:43;;;;;;;7.40;1.58;;;;;;;15.34;74.15;100799.97;10459107;28;20052;-62
2021/07/29 02:03:46;;;;;;;5.97;2.38;;;;;;;15.42;73.92;100808.97;10463242;28;20049;-61
2021/07/29 02:08:49;;;;;;;13.27;2.83;;;;;;;15.50;73.70;100805.72;10462441;28;20509;-62
2021/07/29 02:13:51;;;;;;;10.32;3.45;;;;;;;15.30;73.51;100806.41;10463027;28;20045;-62
2021/07/29 02:18:54;;;;;;;6.20;2.47;;;;;;;15.10;73.09;100808.81;10462082;28;20450;-61
2021/07/29 02:23:56;;;;;;;7.57;2.85;;;;;;;15.14;73.12;100802.31;10462064;28;20044;-59
2021/07/29 02:28:58;;;;;;;10.77;2.63;;;;;;;15.08;73.67;100810.72;10461382;28;20044;-60
2021/07/29 02:34:01;;;;;;;4.93;2.20;;;;;;;14.93;75.00;100818.00;10461796;28;20074;-59
2021/07/29 02:39:03;;;;;;;6.45;2.00;;;;;;;15.09;73.48;100803.66;10461098;28;20512;-59
2021/07/29 02:44:05;;;;;;;9.63;2.00;;;;;;;15.10;74.49;100807.97;10460143;28;20045;-59
2021/07/29 02:49:09;;;;;;;8.15;2.45;;;;;;;15.03;74.03;100805.78;10461097;28;20049;-60
2021/07/29 02:54:11;;;;;;;4.43;2.45;;;;;;;14.91;74.36;100814.66;10461386;28;20049;-61
2021/07/29 02:59:13;;;;;;;8.75;2.20;;;;;;;14.92;75.16;100821.56;10459470;28;20052;-60
2021/07/29 03:04:16;;;;;;;10.50;2.40;;;;;;;14.83;74.82;100823.13;10460710;28;20045;-60
2021/07/29 03:09:18;;;;;;;4.97;3.17;;;;;;;14.80;75.23;100831.25;10459198;28;20049;-60
2021/07/29 03:14:21;;;;;;;6.93;3.15;;;;;;;14.66;75.61;100829.66;10458772;28;20049;-61
2021/07/29 03:19:23;;;;;;;12.52;2.90;;;;;;;14.83;75.21;100830.19;10459607;28;20485;-60
2021/07/29 03:24:25;;;;;;;8.30;2.20;;;;;;;14.66;75.63;100832.28;10459574;28;20045;-61
2021/07/29 03:29:29;;;;;;;14.75;3.60;;;;;;;14.80;76.02;100822.50;10459270;28;20041;-61
2021/07/29 03:34:31;;;;;;;9.25;2.75;;;;;;;14.85;75.91;100823.84;10458764;28;20049;-60
2021/07/29 03:39:33;;;;;;;7.53;2.78;;;;;;;14.84;75.47;100824.81;10457697;28;20049;-60
2021/07/29 03:44:36;;;;;;;12.43;2.40;;;;;;;15.08;75.36;100831.81;10457542;28;20468;-60
2021/07/29 03:49:38;;;;;;;12.90;3.38;;;;;;;14.90;75.42;100838.47;10458732;28;20052;-61
2021/07/29 03:54:40;;;;;;;7.22;2.15;;;;;;;15.04;75.04;100843.53;10457528;28;20056;-63
2021/07/29 03:59:43;;;;;;;11.88;2.40;;;;;;;14.91;75.06;100840.16;10458012;28;20045;-63
2021/07/29 04:04:45;;;;;;;5.50;2.30;;;;;;;14.86;75.78;100837.84;10458405;28;20044;-62
2021/07/29 04:09:47;;;;;;;15.35;3.38;;;;;;;14.70;75.55;100847.88;10457739;28;20053;-63
2021/07/29 04:14:50;;;;;;;6.50;2.67;;;;;;;14.70;76.32;100848.69;10457596;28;20063;-64
2021/07/29 04:19:54;;;;;;;9.13;2.45;;;;;;;14.73;76.10;100851.13;10456051;28;20520;-62
2021/07/29 04:24:56;;;;;;;9.55;2.58;;;;;;;14.60;77.46;100852.97;10456217;28;20049;-62
2021/07/29 04:29:58;;;;;;;7.55;2.30;;;;;;;14.83;76.35;100856.56;10457316;28;20044;-62
2021/07/29 04:35:01;;;;;;;8.75;2.35;;;;;;;14.94;75.88;100861.84;10455874;28;20053;-63
2021/07/29 04:40:04;;;;;;;13.02;2.78;;;;;;;14.84;76.06;100858.22;10455817;28;20059;-63
2021/07/29 04:45:07;;;;;;;10.05;3.33;;;;;;;14.97;75.81;100858.16;10455487;28;20052;-63
2021/07/29 04:50:09;;;;;;;8.10;2.90;;;;;;;14.93;76.17;100856.69;10456458;28;20044;-64
2021/07/29 04:55:12;;;;;;;8.15;2.40;;;;;;;15.01;75.83;100856.94;10456671;28;20060;-62
2021/07/29 05:00:14;;;;;;;6.07;3.05;;;;;;;15.22;75.15;100865.06;10456242;28;20133;-63
2021/07/29 05:05:17;;;;;;;14.68;3.90;;;;;;;15.02;75.87;100867.38;10454836;28;20045;-62
2021/07/29 05:10:19;;;;;;;8.50;2.38;;;;;;;15.28;75.71;100867.22;10456350;28;20045;-62
2021/07/29 05:15:21;;;;;;;6.40;2.42;;;;;;;15.39;74.89;100872.50;10455134;28;20063;-63
2021/07/29 05:20:24;;;;;;;8.18;2.60;;;;;;;15.47;74.46;100869.28;10456112;28;20049;-63
2021/07/29 05:25:26;;;;;;;17.10;3.28;;;;;;;15.39;75.80;100869.88;10456190;28;20056;-64
2021/07/29 05:30:29;;;;;;;8.07;2.50;;;;;;;15.37;75.23;100871.78;10456386;28;20045;-62
2021/07/29 05:35:32;;;;;;;11.32;2.40;;;;;;;15.27;75.07;100881.38;10462907;28;20052;-62
2021/07/29 05:40:35;;;;;;;9.35;3.17;;;;;;;15.52;74.90;100875.06;10463560;28;20057;-63
2021/07/29 05:45:38;;;;;;;11.60;2.80;;;;;;;15.60;74.37;100885.88;10463160;28;20059;-64
2021/07/29 05:50:40;;;;;;;9.82;2.88;;;;;;;15.41;75.32;100885.56;10463465;28;20051;-62
2021/07/29 05:55:42;;;;;;;11.77;3.47;;;;;;;15.56;74.89;100884.41;10463214;28;20123;-63
2021/07/29 06:00:45;;;;;;;19.20;3.28;;;;;;;15.27;75.99;100880.53;10463059;28;20052;-63
2021/07/29 06:05:48;;;;;;;18.35;4.93;;;;;;;15.56;74.76;100887.03;10462761;28;20048;-63
2021/07/29 06:10:50;;;;;;;9.05;3.28;;;;;;;15.63;74.19;100884.75;10461554;28;20049;-62
2021/07/29 06:15:52;;;;;;;13.48;3.00;;;;;;;15.71;74.40;100882.38;10461119;28;20059;-64
2021/07/29 06:20:56;;;;;;;7.30;3.10;;;;;;;15.52;73.96;100887.41;10462157;28;20516;-63
2021/07/29 06:25:59;;;;;;;7.97;3.03;;;;;;;15.83;73.82;100880.59;10462175;28;20060;-62
2021/07/29 06:31:01;;;;;;;16.88;3.25;;;;;;;15.77;73.78;100894.31;10461707;28;20452;-62
2021/07/29 06:36:04;;;;;;;6.72;3.10;;;;;;;16.03;72.97;100900.16;10460213;28;20053;-62
2021/07/29 06:41:07;;;;;;;11.52;3.55;;;;;;;15.95;72.62;100907.84;10461006;28;20413;-62
2021/07/29 06:46:10;;;;;;;10.35;2.90;;;;;;;16.16;72.12;100907.97;10460713;28;20049;-62
2021/07/29 06:51:12;;;;;;;18.08;3.42;;;;;;;16.17;72.40;100920.19;10461071;28;20045;-62
2021/07/29 06:56:14;;;;;;;10.00;3.78;;;;;;;16.21;72.41;100934.03;10460730;28;20049;-62
2021/07/29 07:01:17;;;;;;;13.57;2.30;;;;;;;16.54;71.11;100930.47;10460491;28;20064;-63
2021/07/29 07:06:19;;;;;;;13.43;3.15;;;;;;;16.67;71.17;100941.75;10460324;28;20139;-67
2021/07/29 07:11:22;;;;;;;15.55;3.28;;;;;;;16.75;70.38;100945.59;10460177;28;20041;-64
2021/07/29 07:16:25;;;;;;;7.60;2.65;;;;;;;16.48;70.50;100962.69;10460274;28;20049;-63
2021/07/29 07:21:27;;;;;;;12.80;3.53;;;;;;;16.49;70.62;100956.44;10459908;28;20052;-64
2021/07/29 07:26:30;;;;;;;11.63;3.15;;;;;;;17.03;68.90;100957.41;10458308;28;20060;-65
2021/07/29 07:31:32;;;;;;;12.82;3.22;;;;;;;17.51;67.86;100959.59;10460242;28;20060;-64
2021/07/29 07:36:34;;;;;;;11.15;3.03;;;;;;;17.75;67.33;100967.28;10459200;28;20052;-66
2021/07/29 07:41:37;;;;;;;9.90;3.85;;;;;;;17.12;67.57;100969.88;10459006;28;20044;-65
2021/07/29 07:46:39;;;;;;;10.18;2.78;;;;;;;17.61;66.86;100964.94;10457633;28;20056;-67
2021/07/29 07:51:42;;;;;;;16.08;3.95;;;;;;;18.11;63.91;100969.59;10458990;28;20041;-67
2021/07/29 07:56:45;;;;;;;9.02;3.33;;;;;;;17.30;65.01;100978.13;10457636;28;20045;-64
2021/07/29 08:01:47;;;;;;;16.45;3.33;;;;;;;18.19;62.97;100964.47;10459072;28;20045;-66
2021/07/29 08:06:50;;;;;;;9.93;3.05;;;;;;;18.33;62.12;100956.13;10457464;28;20485;-66
2021/07/29 08:11:53;;;;;;;12.52;3.42;;;;;;;18.24;63.10;100964.03;10457906;28;20378;-66
2021/07/29 08:16:56;;;;;;;8.15;3.28;;;;;;;18.24;62.60;100959.59;10457979;28;20052;-65
2021/07/29 08:21:59;;;;;;;12.57;3.15;;;;;;;17.86;62.64;100984.06;10457667;28;20049;-64
2021/07/29 08:27:02;;;;;;;10.75;3.38;;;;;;;19.60;59.41;100968.66;10455782;28;20405;-66
2021/07/29 08:32:05;;;;;;;11.10;4.03;;;;;;;18.69;60.87;100967.13;10457594;28;20048;-65
2021/07/29 08:37:07;;;;;;;9.02;3.63;;;;;;;18.94;59.01;100964.94;10457157;28;20059;-66
2021/07/29 08:42:11;;;;;;;7.20;2.42;;;;;;;19.49;59.91;100974.97;10456954;28;20520;-65
2021/07/29 08:47:14;;;;;;;11.32;3.40;;;;;;;20.38;55.52;100974.56;10456471;28;20056;-66
2021/07/29 08:52:32;;;;;;;7.63;2.78;;;;;;;20.15;57.00;100989.22;10455891;28;20048;-66
2021/07/29 08:57:38;;;;;;;9.15;2.80;;;;;;;19.85;56.82;100992.00;10456389;28;20056;-65
2021/07/29 09:02:40;;;;;;;7.30;2.63;;;;;;;19.77;56.80;100985.72;10456896;28;20055;-66
2021/07/29 09:07:44;;;;;;;11.00;2.92;;;;;;;18.74;58.68;100982.59;10458222;28;20091;-67
2021/07/29 09:12:48;;;;;;;9.32;2.47;;;;;;;20.40;55.77;100991.22;10461423;28;20491;-64
2021/07/29 09:17:50;;;;;;;9.43;3.03;;;;;;;20.70;55.55;100970.66;10463188;28;20056;-66
2021/07/29 09:22:53;;;;;;;6.15;2.13;;;;;;;20.75;53.99;100972.88;10464901;28;20052;-64
2021/07/29 09:27:55;;;;;;;5.95;2.58;;;;;;;20.06;56.74;100992.78;10463970;28;20413;-65
2021/07/29 09:33:10;;;;;;;9.48;2.83;;;;;;;20.74;54.56;100987.97;10464214;28;20055;-65
2021/07/29 09:38:18;;;;;;;7.10;2.20;;;;;;;20.04;55.77;100993.75;10464119;28;20064;-65
2021/07/29 09:43:30;;;;;;;7.75;2.58;;;;;;;19.70;56.70;100996.03;10463623;28;20041;-65
2021/07/29 09:48:33;;;;;;;9.48;2.85;;;;;;;21.36;50.55;100991.72;10463816;28;20099;-64
2021/07/29 09:53:36;;;;;;;5.20;2.50;;;;;;;21.46;52.07;101003.13;10463545;28;20049;-65
2021/07/29 09:58:41;;;;;;;7.50;3.10;;;;;;;22.88;49.29;101001.88;10462995;28;20053;-62
2021/07/29 10:03:47;;;;;;;9.65;2.70;;;;;;;21.52;49.95;100992.72;10462582;28;20476;-64
2021/07/29 10:08:58;;;;;;;8.63;3.03;;;;;;;22.37;49.51;101000.06;10462251;28;20041;-66
2021/07/29 10:14:00;;;;;;;11.68;2.47;;;;;;;22.78;49.50;100978.88;10461627;28;20052;-65
2021/07/29 10:19:04;;;;;;;10.70;3.53;;;;;;;23.16;47.32;100981.94;10460962;28;20077;-65
2021/07/29 10:24:08;;;;;;;6.13;2.17;;;;;;;22.36;48.57;100979.75;10462858;28;20041;-66
2021/07/29 10:29:19;;;;;;;7.75;2.33;;;;;;;22.12;50.41;100983.09;10460505;28;20052;-64
2021/07/29 10:34:30;;;;;;;7.97;2.30;;;;;;;22.94;47.92;100983.38;10462187;28;20051;-65
2021/07/29 10:39:53;;;;;;;7.95;2.15;;;;;;;22.18;53.07;100998.47;10461789;28;20405;-66
2021/07/29 10:44:56;;;;;;;6.07;2.33;;;;;;;20.63;51.95;100996.19;10449909;28;20052;-65
2021/07/29 10:50:01;;;;;;;6.93;2.30;;;;;;;20.06;53.08;101009.56;10461289;28;20049;-65
2021/07/29 10:55:05;;;;;;;8.30;2.85;;;;;;;20.50;54.69;101016.94;10460641;28;20409;-65
2021/07/29 11:00:08;;;;;;;10.52;2.90;;;;;;;22.40;49.18;101018.41;10459609;28;20052;-64
2021/07/29 11:05:15;;;;;;;9.50;2.72;;;;;;;22.36;50.31;101017.09;10460535;28;20049;-65
2021/07/29 11:10:22;;;;;;;6.10;2.72;;;;;;;21.07;53.53;101019.44;10460413;28;20408;-65
2021/07/29 11:15:34;;;;;;;6.43;2.50;;;;;;;20.30;53.58;101026.81;10460803;28;20106;-63
2021/07/29 11:20:36;;;;;;;6.68;2.50;;;;;;;19.94;55.92;101038.13;10459165;28;20045;-64
2021/07/29 11:25:58;;;;;;;10.38;2.97;;;;;;;19.50;59.66;101040.38;10459736;28;20052;-64
2021/07/29 11:31:00;;;;;;;4.43;2.35;;;;;;;19.66;60.48;101053.09;10459227;28;20049;-65
2021/07/29 11:36:08;;;;;;;8.15;3.00;;;;;;;18.76;60.65;101081.41;10442398;28;20045;-64
2021/07/29 11:41:11;;;;;;;4.70;3.08;;;;;;;17.64;65.41;101087.31;10459051;28;20056;-64
2021/07/29 11:46:13;;;;;;;6.75;2.30;;;;;;;17.87;63.90;101087.25;10457567;28;20045;-65
2021/07/29 11:51:17;;;;;;;8.68;3.35;;;;;;;18.31;64.57;101077.34;10458636;28;20499;-63
2021/07/29 11:56:19;;;;;;;4.63;2.30;;;;;;;18.12;63.57;101079.88;10458303;28;20056;-64
2021/07/29 12:01:22;;;;;;;9.05;2.63;;;;;;;18.57;61.58;101064.47;10457765;28;20051;-64
2021/07/29 12:06:25;;;;;;;5.03;2.38;;;;;;;19.70;59.76;101069.56;10456949;28;20045;-63
2021/07/29 12:11:29;;;;;;;9.68;2.80;;;;;;;21.87;54.97;101056.75;10456554;28;20400;-66
2021/07/29 12:16:41;;;;;;;6.78;2.55;;;;;;;22.62;53.55;101057.03;10456912;28;20058;-63
2021/07/29 12:21:45;;;;;;;5.20;2.40;;;;;;;22.87;51.08;101054.44;10457646;28;20081;-65
2021/07/29 12:27:19;;;;;;;9.32;2.80;;;;;;;23.45;50.79;101054.56;10457675;28;20049;-64
2021/07/29 12:32:27;;;;;;;8.90;3.38;;;;;;;24.18;50.95;101036.81;10449517;28;20052;-63
2021/07/29 12:37:37;;;;;;;8.05;3.20;;;;;;;25.33;47.11;101036.28;10457401;28;20056;-66
2021/07/29 12:42:39;;;;;;;5.47;2.45;;;;;;;25.01;45.62;101030.09;10457149;28;20045;-66
2021/07/29 12:47:42;;;;;;;11.32;2.53;;;;;;;25.48;45.97;101028.28;10456863;28;20060;-64
2021/07/29 12:52:44;;;;;;;4.63;2.42;;;;;;;25.73;44.42;101034.25;10456966;28;20048;-67
2021/07/29 12:57:54;;;;;;;5.80;2.70;;;;;;;25.17;44.23;101026.50;10457083;28;20048;-67
2021/07/29 13:02:56;;;;;;;8.80;2.73;;;;;;;25.56;43.00;101020.16;10456397;28;20408;-66
2021/07/29 13:07:59;;;;;;;5.00;2.30;;;;;;;26.80;45.67;101041.16;10456558;28;20053;-66
2021/07/29 13:13:01;;;;;;;5.43;2.55;;;;;;;26.89;42.73;101029.25;10456227;28;20045;-65
2021/07/29 13:18:04;;;;;;;11.52;2.95;;;;;;;26.50;40.17;101027.75;10456131;28;20045;-65
2021/07/29 13:23:07;;;;;;;9.68;3.20;;;;;;;25.31;43.09;101019.53;10456408;28;20045;-66
2021/07/29 13:28:09;;;;;;;9.57;2.47;;;;;;;24.20;46.83;101021.44;10456100;28;20049;-66
2021/07/29 13:33:11;;;;;;;10.40;2.78;;;;;;;24.97;47.76;101013.56;10456417;28;20060;-65
2021/07/29 13:38:14;;;;;;;7.88;3.03;;;;;;;23.60;47.08;101018.16;10455677;28;20064;-64
2021/07/29 13:43:16;;;;;;;6.53;2.42;;;;;;;22.76;48.17;101017.38;10455733;28;20481;-65
2021/07/29 13:48:21;;;;;;;7.00;2.30;;;;;;;23.86;47.86;101017.19;10455250;28;20055;-66
2021/07/29 13:53:25;;;;;;;9.40;3.05;;;;;;;22.85;44.89;101002.22;10457127;28;20044;-63
2021/07/29 13:58:27;;;;;;;5.80;2.83;;;;;;;23.41;48.43;101018.53;10462968;28;20489;-66
2021/07/29 14:03:31;;;;;;;5.10;2.20;;;;;;;22.78;49.07;101005.56;10462966;28;20045;-65
2021/07/29 14:08:33;;;;;;;9.45;2.78;;;;;;;21.98;50.16;101013.00;10462060;28;20055;-66
2021/07/29 14:13:36;;;;;;;7.68;2.28;;;;;;;23.02;48.56;100987.91;10462957;28;20052;-66
2021/07/29 14:18:39;;;;;;;6.60;3.00;;;;;;;23.11;45.41;100994.13;10462327;28;20408;-66
2021/07/29 14:23:42;;;;;;;6.60;2.10;;;;;;;23.36;46.39;100997.63;10460868;28;20045;-66
2021/07/29 14:28:44;;;;;;;6.82;2.95;;;;;;;24.01;43.99;100999.41;10462006;28;20044;-64
2021/07/29 14:33:47;;;;;;;5.10;2.35;;;;;;;24.81;40.77;100979.69;10460802;28;20052;-64
2021/07/29 14:38:49;;;;;;;6.45;2.08;;;;;;;23.48;43.96;100984.78;10461144;28;20048;-65
2021/07/29 14:43:51;;;;;;;5.90;2.50;;;;;;;22.23;46.95;101006.00;10461542;28;20053;-66
2021/07/29 14:54:00;;;;;;;5.47;2.25;;;;;;;21.21;48.59;100992.25;10460027;28;20053;-65
2021/07/29 16:08:38;;;;;;;9.45;3.15;;;;;;;21.96;47.69;101009.69;10458093;28;20048;-64
2021/07/29 16:13:43;;;;;;;8.77;2.83;;;;;;;21.15;49.96;101016.84;10458705;28;20045;-65
2021/07/29 16:18:45;;;;;;;9.93;2.85;;;;;;;20.99;51.74;101009.53;10457244;28;20049;-65
2021/07/29 16:23:48;;;;;;;9.85;3.22;;;;;;;20.95;50.72;101003.66;10457638;28;20048;-66
2021/07/29 16:28:50;;;;;;;10.68;3.20;;;;;;;20.87;49.56;101019.56;10457447;28;20060;-64
2021/07/29 16:33:52;;;;;;;7.25;2.38;;;;;;;21.05;50.75;101013.44;10457343;28;20041;-65
2021/07/29 16:38:54;;;;;;;6.15;2.92;;;;;;;21.10;49.54;101008.47;10457369;28;20048;-68
2021/07/29 16:43:57;;;;;;;16.20;2.88;;;;;;;21.50;48.93;101004.50;10457156;28;20056;-67
2021/07/29 16:48:59;;;;;;;8.98;2.53;;;;;;;20.72;51.75;101002.44;10456603;28;20045;-65
2021/07/29 16:54:01;;;;;;;10.05;3.13;;;;;;;21.32;51.65;101010.66;10456987;28;20214;-66
2021/07/29 16:59:04;;;;;;;9.68;2.50;;;;;;;21.04;49.77;101003.75;10456533;28;20057;-64
2021/07/29 17:04:06;;;;;;;5.65;2.50;;;;;;;21.25;52.16;101009.63;10456545;28;20053;-65
2021/07/29 17:09:08;;;;;;;11.25;3.35;;;;;;;20.56;53.57;101011.00;10455896;28;20048;-66
2021/07/29 17:14:11;;;;;;;7.97;2.90;;;;;;;20.66;52.53;101017.16;10456437;28;20045;-66
2021/07/29 17:19:15;;;;;;;11.98;2.47;;;;;;;20.34;53.66;101021.06;10454849;28;20045;-66
2021/07/29 17:24:18;;;;;;;7.15;2.20;;;;;;;20.86;52.17;101019.69;10456865;28;20041;-65
2021/07/29 17:29:20;;;;;;;8.80;2.83;;;;;;;21.01;52.21;101014.69;10459541;28;20041;-65
2021/07/29 17:34:23;;;;;;;6.35;2.30;;;;;;;21.02;51.39;101006.56;10464139;28;20053;-68
2021/07/29 17:39:25;;;;;;;9.50;2.60;;;;;;;21.13;50.91;101011.66;10463785;28;20083;-66
2021/07/29 17:44:29;;;;;;;8.30;2.25;;;;;;;20.49;52.48;101023.22;10463918;28;20056;-65
2021/07/29 17:49:33;;;;;;;7.88;2.47;;;;;;;20.17;53.89;101020.03;10463748;28;20048;-67
2021/07/29 17:54:35;;;;;;;8.80;2.47;;;;;;;20.38;53.66;101011.81;10462497;28;20048;-64
2021/07/29 17:59:37;;;;;;;10.25;2.17;;;;;;;20.40;54.05;101020.47;10463273;28;20053;-66
2021/07/29 18:04:57;;;;;;;7.55;2.70;;;;;;;19.90;54.09;101017.28;10447963;28;20041;-65
2021/07/29 18:09:59;;;;;;;7.03;2.10;;;;;;;19.70;54.17;101021.75;10462621;28;20049;-65
2021/07/29 18:15:02;;;;;;;6.93;2.42;;;;;;;19.57;55.67;101014.09;10462581;28;20049;-65
2021/07/29 18:20:10;;;;;;;8.20;3.28;;;;;;;19.25;58.96;101025.84;10461120;28;20052;-67
2021/07/29 18:25:12;;;;;;;7.70;2.58;;;;;;;19.27;56.91;101010.63;10460991;28;20404;-65
2021/07/29 18:30:15;;;;;;;6.88;2.75;;;;;;;19.43;55.76;101016.22;10461862;28;20494;-65
2021/07/29 18:35:17;;;;;;;10.35;3.13;;;;;;;19.55;56.00;101019.56;10461759;28;20404;-64
2021/07/29 18:40:20;;;;;;;7.10;2.75;;;;;;;19.66;56.84;101014.06;10461382;28;20135;-64
2021/07/29 18:45:22;;;;;;;9.57;3.10;;;;;;;19.40;56.21;101020.94;10461682;28;20053;-66
2021/07/29 18:50:27;;;;;;;6.07;2.38;;;;;;;19.14;57.24;101020.69;10461354;28;20060;-64
2021/07/29 18:55:29;;;;;;;6.95;2.53;;;;;;;19.04;59.23;101024.13;10461060;28;20049;-65
2021/07/29 19:00:33;;;;;;;7.55;2.65;;;;;;;18.79;57.53;101030.75;10460801;28;20436;-65
2021/07/29 19:05:36;;;;;;;7.65;3.00;;;;;;;18.90;58.98;101032.50;10460717;28;20055;-67
2021/07/29 19:10:38;;;;;;;7.93;2.60;;;;;;;18.68;59.87;101033.53;10460237;28;20511;-64
2021/07/29 19:15:41;;;;;;;10.48;3.75;;;;;;;18.73;58.82;101033.97;10460735;28;20052;-67
2021/07/29 19:20:43;;;;;;;5.45;2.50;;;;;;;18.63;60.44;101033.94;10459894;28;20056;-66
2021/07/29 19:25:46;;;;;;;9.73;3.20;;;;;;;18.42;63.37;101049.06;10460012;28;20052;-67
2021/07/29 19:30:48;;;;;;;8.82;2.67;;;;;;;18.23;64.72;101044.53;10459190;28;20057;-66
2021/07/29 19:35:50;;;;;;;7.35;3.22;;;;;;;17.97;66.97;101040.47;10459524;28;20049;-65
2021/07/29 19:40:53;;;;;;;11.93;3.75;;;;;;;17.92;67.07;101042.69;10459191;28;20049;-67
2021/07/29 19:45:55;;;;;;;8.75;2.88;;;;;;;17.57;68.28;101051.75;10459506;28;20048;-64
2021/07/29 19:50:58;;;;;;;8.35;3.25;;;;;;;17.53;68.74;101060.06;10458265;28;20056;-66
2021/07/29 19:56:00;;;;;;;10.25;3.58;;;;;;;17.11;70.30;101068.72;10457521;28;20041;-66
2021/07/29 20:01:03;;;;;;;7.00;3.42;;;;;;;17.45;63.10;101066.00;10458430;28;20045;-65
2021/07/29 20:06:06;;;;;;;7.47;3.42;;;;;;;17.35;63.85;101057.97;10458254;28;20136;-68
2021/07/29 20:11:08;;;;;;;10.32;3.55;;;;;;;17.51;62.81;101059.34;10457961;28;20393;-67
2021/07/29 20:16:10;;;;;;;6.75;3.65;;;;;;;17.25;64.07;101059.69;10458126;28;20120;-67
2021/07/29 20:21:13;;;;;;;6.72;2.80;;;;;;;17.43;60.90;101054.66;10457868;28;20045;-66
2021/07/29 20:26:15;;;;;;;7.63;4.13;;;;;;;16.99;61.59;101054.69;10456620;28;20055;-67
2021/07/29 20:31:18;;;;;;;4.72;3.13;;;;;;;16.74;65.65;101054.94;10457489;28;20520;-66
2021/07/29 20:36:20;;;;;;;14.38;4.82;;;;;;;16.42;65.99;101053.84;10457472;28;20099;-66
2021/07/29 20:41:22;;;;;;;6.20;4.10;;;;;;;16.06;67.51;101047.00;10456064;28;20064;-64
2021/07/29 20:46:25;;;;;;;7.40;4.18;;;;;;;15.87;69.66;101053.69;10456481;28;20045;-66
2021/07/29 20:51:27;;;;;;;9.52;3.83;;;;;;;15.79;69.36;101053.41;10457576;28;20076;-67
2021/07/29 20:56:30;;;;;;;6.10;4.63;;;;;;;15.36;69.14;101046.84;10456628;28;20060;-65
2021/07/29 21:01:32;;;;;;;10.77;5.55;;;;;;;15.31;70.53;101043.69;10457109;28;20041;-64
2021/07/29 21:06:35;;;;;;;14.23;5.00;;;;;;;14.87;72.08;101053.06;10456462;28;20106;-67
2021/07/29 21:11:38;;;;;;;5.53;3.85;;;;;;;14.88;72.14;101045.97;10456722;28;20382;-64
2021/07/29 21:16:40;;;;;;;11.23;5.90;;;;;;;14.82;72.53;101044.63;10456331;28;20068;-64
2021/07/29 21:21:43;;;;;;;6.90;4.10;;;;;;;14.85;72.34;101042.63;10456736;28;20052;-64
2021/07/29 21:26:45;;;;;;;9.18;4.05;;;;;;;14.76;73.51;101039.78;10455576;28;20511;-65
2021/07/29 21:31:47;;;;;;;10.60;4.93;;;;;;;14.55;74.00;101044.78;10456048;28;20415;-68
2021/07/29 21:36:50;;;;;;;9.93;4.65;;;;;;;14.61;73.82;101041.75;10455691;28;20103;-65
2021/07/29 21:41:52;;;;;;;9.20;5.30;;;;;;;14.40;74.30;101044.03;10455401;28;20065;-65
2021/07/29 21:46:54;;;;;;;12.48;5.30;;;;;;;13.96;75.20;101040.03;10455519;28;20512;-64
2021/07/29 21:51:57;;;;;;;14.40;5.22;;;;;;;14.06;75.62;101044.56;10455875;28;20045;-67
2021/07/29 21:57:00;;;;;;;8.70;4.57;;;;;;;14.01;75.97;101041.41;10455518;28;20049;-64
2021/07/29 22:02:02;;;;;;;10.85;5.35;;;;;;;13.93;75.33;101043.72;10455512;28;20049;-66
2021/07/29 22:07:05;;;;;;;8.30;5.50;;;;;;;13.85;74.71;101036.34;10455256;28;20047;-67
2021/07/29 22:12:08;;;;;;;10.48;6.05;;;;;;;13.91;74.95;101042.97;10455939;28;20041;-66
2021/07/29 22:17:10;;;;;;;8.85;5.60;;;;;;;13.65;75.72;101039.44;10461316;28;20060;-65
2021/07/29 22:22:12;;;;;;;7.82;5.03;;;;;;;13.72;75.37;101046.03;10463047;28;20053;-65
2021/07/29 22:27:15;;;;;;;12.88;6.60;;;;;;;13.65;76.31;101035.06;10462299;28;20049;-64
2021/07/29 22:32:17;;;;;;;12.10;5.57;;;;;;;13.44;76.40;101033.84;10462082;28;20393;-65
2021/07/29 22:37:19;;;;;;;6.93;5.47;;;;;;;13.42;77.26;101030.47;10462282;28;20052;-63
2021/07/29 22:42:22;;;;;;;14.13;6.93;;;;;;;13.50;77.16;101026.38;10460296;28;20057;-66
2021/07/29 22:47:24;;;;;;;9.30;5.50;;;;;;;13.60;76.00;101029.25;10461708;28;20045;-65
2021/07/29 22:52:27;;;;;;;13.18;5.65;;;;;;;13.44;76.96;101026.78;10460074;28;20397;-65
2021/07/29 22:57:30;;;;;;;9.60;6.88;;;;;;;13.43;77.14;101021.63;10461017;28;20405;-65
2021/07/29 23:02:33;;;;;;;11.15;5.95;;;;;;;13.36;78.40;101013.28;10460674;28;20374;-66
2021/07/29 23:07:36;;;;;;;14.02;5.40;;;;;;;13.26;77.32;101018.28;10461049;28;20412;-66
2021/07/29 23:12:38;;;;;;;14.32;5.93;;;;;;;13.23;77.52;101018.50;10459246;28;20106;-65
2021/07/29 23:17:41;;;;;;;10.77;6.82;;;;;;;13.26;77.32;101013.00;10460112;28;20060;-67
2021/07/29 23:22:43;;;;;;;10.63;6.05;;;;;;;13.30;77.01;101005.78;10459969;28;20382;-64
2021/07/29 23:33:07;;;;;;;14.98;6.90;;;;;;;13.01;78.71;100993.59;10460486;28;20041;-64
2021/07/29 23:38:12;;;;;;;11.98;7.07;;;;;;;13.00;79.29;100996.31;10459265;28;20462;-64
2021/07/29 23:43:18;;;;;;;7.88;6.70;;;;;;;12.82;79.65;100988.66;10459277;28;20045;-65
2021/07/29 23:48:20;;;;;;;11.82;6.43;;;;;;;12.68;80.02;100977.34;10457597;28;20041;-65
2021/07/29 23:53:24;;;;;;;11.13;6.40;;;;;;;12.80;79.72;100979.19;10459040;28;20048;-67
2021/07/29 23:58:29;;;;;;;14.95;7.78;;;;;;;12.78;80.44;100973.22;10459172;28;20045;-66
